createdAt,value
2022-11-20T00:00:00.595Z,-7.94
2022-11-20T00:01:00.756Z,-7.94
2022-11-20T00:02:00.941Z,-7.93
2022-11-20T00:03:01.046Z,-7.92
2022-11-20T00:04:01.203Z,-7.93
2022-11-20T00:05:00.332Z,-7.93
2022-11-20T00:06:00.465Z,-7.92
2022-11-20T00:07:00.665Z,-7.89
2022-11-20T00:08:00.771Z,-7.85
2022-11-20T00:09:00.988Z,-7.85
2022-11-20T00:10:01.096Z,-7.89
2022-11-20T00:11:01.228Z,-7.94
2022-11-20T00:12:00.364Z,-7.98
2022-11-20T00:13:00.514Z,-8.01
2022-11-20T00:14:00.671Z,-8.04
2022-11-20T00:15:00.821Z,-8.05
2022-11-20T00:16:00.957Z,-8.05
2022-11-20T00:17:01.103Z,-8.03
2022-11-20T00:18:01.246Z,-8
2022-11-20T00:19:00.414Z,-7.99
2022-11-20T00:20:00.548Z,-7.98
2022-11-20T00:21:00.701Z,-8
2022-11-20T00:22:00.846Z,-8.04
2022-11-20T00:23:01.013Z,-8.05
2022-11-20T00:24:01.141Z,-8.09
2022-11-20T00:25:00.289Z,-8.1
2022-11-20T00:26:00.437Z,-8.09
2022-11-20T00:27:00.589Z,-8.1
2022-11-20T00:28:00.743Z,-8.11
2022-11-20T00:29:00.905Z,-8.11
2022-11-20T00:30:01.051Z,-8.09
2022-11-20T00:31:01.187Z,-8.1
2022-11-20T00:32:00.328Z,-8.12
2022-11-20T00:33:00.490Z,-8.14
2022-11-20T00:34:00.650Z,-8.14
2022-11-20T00:35:00.778Z,-8.11
2022-11-20T00:36:00.926Z,-8.12
2022-11-20T00:37:01.081Z,-8.16
2022-11-20T00:38:01.233Z,-8.2
2022-11-20T00:39:00.374Z,-8.21
2022-11-20T00:40:00.515Z,-8.23
2022-11-20T00:41:00.667Z,-8.25
2022-11-20T00:42:00.821Z,-8.25
2022-11-20T00:43:00.962Z,-8.26
2022-11-20T00:44:01.122Z,-8.28
2022-11-20T00:45:01.249Z,-8.28
2022-11-20T00:46:00.415Z,-8.27
2022-11-20T00:47:00.549Z,-8.28
2022-11-20T00:48:00.689Z,-8.26
2022-11-20T00:49:00.854Z,-8.23
2022-11-20T00:50:00.980Z,-8.21
2022-11-20T00:51:01.135Z,-8.26
2022-11-20T00:52:00.273Z,-8.3
2022-11-20T00:53:00.421Z,-8.33
2022-11-20T00:54:00.592Z,-8.31
2022-11-20T00:55:00.705Z,-8.34
2022-11-20T00:56:00.860Z,-8.37
2022-11-20T00:57:01.005Z,-8.39
2022-11-20T00:58:04.371Z,-8.4
2022-11-20T00:59:00.326Z,-8.41
2022-11-20T01:00:00.455Z,-8.4
2022-11-20T01:01:00.645Z,-8.39
2022-11-20T01:02:00.744Z,-8.41
2022-11-20T01:03:00.911Z,-8.43
2022-11-20T01:04:01.090Z,-8.45
2022-11-20T01:05:01.212Z,-8.48
2022-11-20T01:06:00.357Z,-8.45
2022-11-20T01:07:00.542Z,-8.44
2022-11-20T01:08:00.651Z,-8.42
2022-11-20T01:09:00.809Z,-8.4
2022-11-20T01:10:00.960Z,-8.41
2022-11-20T01:11:01.099Z,-8.43
2022-11-20T01:12:01.248Z,-8.44
2022-11-20T01:13:00.395Z,-8.44
2022-11-20T01:14:00.558Z,-8.41
2022-11-20T01:15:00.677Z,-8.39
2022-11-20T01:16:00.823Z,-8.39
2022-11-20T01:17:00.980Z,-8.41
2022-11-20T01:18:01.122Z,-8.41
2022-11-20T01:19:00.269Z,-8.4
2022-11-20T01:20:00.404Z,-8.37
2022-11-20T01:21:00.554Z,-8.37
2022-11-20T01:22:00.694Z,-8.4
2022-11-20T01:23:00.858Z,-8.42
2022-11-20T01:24:01.010Z,-8.44
2022-11-20T01:25:01.151Z,-8.48
2022-11-20T01:26:00.302Z,-8.49
2022-11-20T01:27:00.454Z,-8.51
2022-11-20T01:28:00.593Z,-8.51
2022-11-20T01:29:00.758Z,-8.49
2022-11-20T01:30:01.301Z,-8.45
2022-11-20T01:31:01.038Z,-8.46
2022-11-20T01:32:01.172Z,-8.49
2022-11-20T01:33:00.325Z,-8.52
2022-11-20T01:34:00.507Z,-8.55
2022-11-20T01:35:00.630Z,-8.59
2022-11-20T01:36:00.768Z,-8.6
2022-11-20T01:37:00.917Z,-8.6
2022-11-20T01:38:01.077Z,-8.62
2022-11-20T01:39:01.251Z,-8.58
2022-11-20T01:40:00.369Z,-8.56
2022-11-20T01:41:00.500Z,-8.56
2022-11-20T01:42:01.874Z,-8.57
2022-11-20T01:43:00.792Z,-8.58
2022-11-20T01:44:00.961Z,-8.6
2022-11-20T01:45:01.095Z,-8.63
2022-11-20T01:46:01.236Z,-8.62
2022-11-20T01:47:00.391Z,-8.62
2022-11-20T01:48:00.535Z,-8.62
2022-11-20T01:49:00.690Z,-8.63
2022-11-20T01:50:00.835Z,-8.6
2022-11-20T01:51:00.984Z,-8.54
2022-11-20T01:52:01.126Z,-8.44
2022-11-20T01:53:00.303Z,-8.42
2022-11-20T01:54:00.435Z,-8.46
2022-11-20T01:55:00.578Z,-8.5
2022-11-20T01:56:00.730Z,-8.49
2022-11-20T01:57:00.877Z,-8.44
2022-11-20T01:58:01.041Z,-8.4
2022-11-20T01:59:01.156Z,-8.4
2022-11-20T02:00:00.296Z,-8.39
2022-11-20T02:01:00.570Z,-8.37
2022-11-20T02:02:00.581Z,-8.33
2022-11-20T02:03:00.729Z,-8.3
2022-11-20T02:04:00.886Z,-8.29
2022-11-20T02:05:01.032Z,-8.3
2022-11-20T02:06:01.183Z,-8.35
2022-11-20T02:07:00.442Z,-8.38
2022-11-20T02:08:00.466Z,-8.4
2022-11-20T02:09:00.608Z,-8.39
2022-11-20T02:10:00.763Z,-8.36
2022-11-20T02:11:00.921Z,-8.36
2022-11-20T02:12:01.062Z,-8.41
2022-11-20T02:13:01.244Z,-8.43
2022-11-20T02:14:00.364Z,-8.41
2022-11-20T02:15:00.507Z,-8.39
2022-11-20T02:16:00.672Z,-8.35
2022-11-20T02:17:00.837Z,-8.38
2022-11-20T02:18:00.958Z,-8.43
2022-11-20T02:19:01.127Z,-8.49
2022-11-20T02:20:00.261Z,-8.5
2022-11-20T02:21:00.410Z,-8.49
2022-11-20T02:22:00.575Z,-8.45
2022-11-20T02:23:00.703Z,-8.42
2022-11-20T02:24:00.850Z,-8.38
2022-11-20T02:25:00.997Z,-8.35
2022-11-20T02:26:01.135Z,-8.31
2022-11-20T02:27:00.311Z,-8.28
2022-11-20T02:28:00.440Z,-8.25
2022-11-20T02:29:00.583Z,-8.26
2022-11-20T02:30:00.732Z,-8.27
2022-11-20T02:31:00.883Z,-8.25
2022-11-20T02:32:01.041Z,-8.22
2022-11-20T02:33:01.192Z,-8.2
2022-11-20T02:34:00.321Z,-8.23
2022-11-20T02:35:00.461Z,-8.26
2022-11-20T02:36:00.603Z,-8.3
2022-11-20T02:37:00.759Z,-8.36
2022-11-20T02:38:00.919Z,-8.41
2022-11-20T02:39:01.059Z,-8.43
2022-11-20T02:40:01.198Z,-8.48
2022-11-20T02:41:00.345Z,-8.51
2022-11-20T02:42:00.498Z,-8.53
2022-11-20T02:43:00.641Z,-8.57
2022-11-20T02:44:00.807Z,-8.6
2022-11-20T02:45:00.941Z,-8.62
2022-11-20T02:46:01.090Z,-8.62
2022-11-20T02:47:01.245Z,-8.63
2022-11-20T02:48:00.373Z,-8.66
2022-11-20T02:49:00.553Z,-8.69
2022-11-20T02:50:00.677Z,-8.7
2022-11-20T02:51:00.830Z,-8.69
2022-11-20T02:52:00.980Z,-8.66
2022-11-20T02:53:01.131Z,-8.55
2022-11-20T02:54:00.286Z,-8.45
2022-11-20T02:55:00.424Z,-8.39
2022-11-20T02:56:00.579Z,-8.34
2022-11-20T02:57:00.727Z,-8.28
2022-11-20T02:58:00.900Z,-8.26
2022-11-20T02:59:01.046Z,-8.25
2022-11-20T03:00:01.190Z,-8.22
2022-11-20T03:01:00.359Z,-8.2
2022-11-20T03:02:00.484Z,-8.16
2022-11-20T03:03:00.623Z,-8.12
2022-11-20T03:04:00.784Z,-8.14
2022-11-20T03:05:00.936Z,-8.2
2022-11-20T03:06:01.065Z,-8.25
2022-11-20T03:07:01.308Z,-8.29
2022-11-20T03:08:00.360Z,-8.3
2022-11-20T03:09:00.510Z,-8.31
2022-11-20T03:10:00.676Z,-8.34
2022-11-20T03:11:00.806Z,-8.38
2022-11-20T03:12:00.961Z,-8.43
2022-11-20T03:13:01.095Z,-8.44
2022-11-20T03:14:01.252Z,-8.43
2022-11-20T03:15:00.408Z,-8.39
2022-11-20T03:16:00.533Z,-8.37
2022-11-20T03:17:00.693Z,-8.35
2022-11-20T03:18:00.816Z,-8.35
2022-11-20T03:19:00.968Z,-8.31
2022-11-20T03:20:01.107Z,-8.28
2022-11-20T03:21:01.274Z,-8.26
2022-11-20T03:22:00.410Z,-8.27
2022-11-20T03:23:00.549Z,-8.29
2022-11-20T03:24:00.695Z,-8.28
2022-11-20T03:25:00.832Z,-8.31
2022-11-20T03:26:01.017Z,-8.4
2022-11-20T03:27:01.141Z,-8.46
2022-11-20T03:28:00.283Z,-8.43
2022-11-20T03:29:00.436Z,-8.35
2022-11-20T03:30:00.573Z,-8.28
2022-11-20T03:31:00.745Z,-8.24
2022-11-20T03:32:00.865Z,-8.16
2022-11-20T03:33:01.021Z,-8.1
2022-11-20T03:34:01.151Z,-8.07
2022-11-20T03:35:00.301Z,-8.09
2022-11-20T03:36:00.466Z,-8.15
2022-11-20T03:37:00.642Z,-8.24
2022-11-20T03:38:00.750Z,-8.33
2022-11-20T03:39:00.892Z,-8.37
2022-11-20T03:40:01.059Z,-8.41
2022-11-20T03:41:01.184Z,-8.44
2022-11-20T03:42:00.340Z,-8.46
2022-11-20T03:43:00.502Z,-8.46
2022-11-20T03:44:00.618Z,-8.42
2022-11-20T03:45:00.770Z,-8.45
2022-11-20T03:46:00.926Z,-8.48
2022-11-20T03:47:01.070Z,-8.54
2022-11-20T03:48:01.224Z,-8.59
2022-11-20T03:49:00.356Z,-8.63
2022-11-20T03:50:00.503Z,-8.63
2022-11-20T03:51:00.654Z,-8.63
2022-11-20T03:52:00.795Z,-8.69
2022-11-20T03:53:00.971Z,-8.71
2022-11-20T03:54:01.105Z,-8.73
2022-11-20T03:55:01.247Z,-8.74
2022-11-20T03:56:00.393Z,-8.75
2022-11-20T03:57:00.557Z,-8.79
2022-11-20T03:58:00.713Z,-8.81
2022-11-20T03:59:00.848Z,-8.82
2022-11-20T04:00:00.997Z,-8.84
2022-11-20T04:01:01.135Z,-8.85
2022-11-20T04:02:00.333Z,-8.87
2022-11-20T04:03:00.453Z,-8.87
2022-11-20T04:04:00.625Z,-8.88
2022-11-20T04:05:00.724Z,-8.92
2022-11-20T04:06:00.869Z,-8.94
2022-11-20T04:07:01.027Z,-8.95
2022-11-20T04:08:01.163Z,-8.96
2022-11-20T04:09:00.337Z,-8.96
2022-11-20T04:10:00.456Z,-8.97
2022-11-20T04:11:00.602Z,-8.97
2022-11-20T04:12:00.737Z,-8.94
2022-11-20T04:13:00.885Z,-8.92
2022-11-20T04:14:01.052Z,-8.88
2022-11-20T04:15:01.193Z,-8.85
2022-11-20T04:16:00.339Z,-8.8
2022-11-20T04:17:00.505Z,-8.74
2022-11-20T04:18:00.639Z,-8.71
2022-11-20T04:19:00.790Z,-8.73
2022-11-20T04:20:00.958Z,-8.73
2022-11-20T04:21:01.087Z,-8.72
2022-11-20T04:22:01.244Z,-8.69
2022-11-20T04:23:00.379Z,-8.68
2022-11-20T04:24:00.539Z,-8.71
2022-11-20T04:25:00.707Z,-8.69
2022-11-20T04:26:00.839Z,-8.66
2022-11-20T04:27:00.987Z,-8.65
2022-11-20T04:28:01.131Z,-8.63
2022-11-20T04:29:00.279Z,-8.63
2022-11-20T04:30:00.440Z,-8.65
2022-11-20T04:31:00.583Z,-8.67
2022-11-20T04:32:00.726Z,-8.71
2022-11-20T04:33:00.911Z,-8.73
2022-11-20T04:34:01.026Z,-8.78
2022-11-20T04:35:01.184Z,-8.78
2022-11-20T04:36:00.313Z,-8.79
2022-11-20T04:37:00.459Z,-8.81
2022-11-20T04:38:00.624Z,-8.81
2022-11-20T04:39:00.749Z,-8.79
2022-11-20T04:40:00.897Z,-8.77
2022-11-20T04:41:01.040Z,-8.8
2022-11-20T04:42:01.194Z,-8.82
2022-11-20T04:43:00.372Z,-8.88
2022-11-20T04:44:00.834Z,-8.93
2022-11-20T04:45:00.633Z,-8.92
2022-11-20T04:46:00.786Z,-8.92
2022-11-20T04:47:00.934Z,-8.93
2022-11-20T04:48:01.091Z,-8.96
2022-11-20T04:49:01.241Z,-8.99
2022-11-20T04:50:00.459Z,-8.99
2022-11-20T04:51:00.519Z,-8.96
2022-11-20T04:52:00.677Z,-8.92
2022-11-20T04:53:00.826Z,-8.87
2022-11-20T04:54:00.963Z,-8.81
2022-11-20T04:55:01.107Z,-8.73
2022-11-20T04:56:01.254Z,-8.71
2022-11-20T04:57:00.404Z,-8.69
2022-11-20T04:58:00.587Z,-8.66
2022-11-20T04:59:00.703Z,-8.67
2022-11-20T05:00:00.854Z,-8.68
2022-11-20T05:01:00.998Z,-8.67
2022-11-20T05:02:01.220Z,-8.68
2022-11-20T05:03:00.307Z,-8.69
2022-11-20T05:04:00.437Z,-8.67
2022-11-20T05:05:00.585Z,-8.66
2022-11-20T05:06:00.733Z,-8.66
2022-11-20T05:07:00.898Z,-8.66
2022-11-20T05:08:01.052Z,-8.68
2022-11-20T05:09:01.197Z,-8.71
2022-11-20T05:10:00.327Z,-8.78
2022-11-20T05:11:00.476Z,-8.85
2022-11-20T05:12:00.610Z,-8.88
2022-11-20T05:13:00.763Z,-8.9
2022-11-20T05:14:00.940Z,-8.93
2022-11-20T05:15:01.066Z,-8.95
2022-11-20T05:16:01.217Z,-8.97
2022-11-20T05:17:00.358Z,-8.98
2022-11-20T05:18:00.507Z,-8.96
2022-11-20T05:19:00.668Z,-8.96
2022-11-20T05:20:00.802Z,-8.98
2022-11-20T05:21:00.966Z,-9.04
2022-11-20T05:22:01.083Z,-9.1
2022-11-20T05:23:01.246Z,-9.16
2022-11-20T05:24:00.396Z,-9.18
2022-11-20T05:25:00.543Z,-9.18
2022-11-20T05:26:00.695Z,-9.2
2022-11-20T05:27:00.831Z,-9.2
2022-11-20T05:28:00.977Z,-9.22
2022-11-20T05:29:01.141Z,-9.23
2022-11-20T05:30:00.276Z,-9.24
2022-11-20T05:31:00.423Z,-9.25
2022-11-20T05:32:00.569Z,-9.26
2022-11-20T05:33:00.720Z,-9.27
2022-11-20T05:34:00.886Z,-9.26
2022-11-20T05:35:01.038Z,-9.24
2022-11-20T05:36:01.162Z,-9.23
2022-11-20T05:37:00.324Z,-9.2
2022-11-20T05:38:00.475Z,-9.18
2022-11-20T05:39:01.925Z,-9.15
2022-11-20T05:40:00.752Z,-9.12
2022-11-20T05:41:00.919Z,-9.08
2022-11-20T05:42:01.050Z,-9.02
2022-11-20T05:43:01.184Z,-8.99
2022-11-20T05:44:00.346Z,-8.95
2022-11-20T05:45:00.495Z,-8.95
2022-11-20T05:46:00.659Z,-8.97
2022-11-20T05:47:00.783Z,-8.98
2022-11-20T05:48:00.943Z,-8.96
2022-11-20T05:49:01.082Z,-8.97
2022-11-20T05:50:01.225Z,-8.94
2022-11-20T05:51:00.386Z,-8.89
2022-11-20T05:52:00.510Z,-8.89
2022-11-20T05:53:00.688Z,-8.89
2022-11-20T05:54:00.801Z,-8.89
2022-11-20T05:55:00.958Z,-8.89
2022-11-20T05:56:01.120Z,-8.92
2022-11-20T05:57:01.244Z,-8.97
2022-11-20T05:58:00.400Z,-9.03
2022-11-20T05:59:00.558Z,-9.04
2022-11-20T06:00:00.702Z,-9.04
2022-11-20T06:01:00.899Z,-9.08
2022-11-20T06:02:01.020Z,-9.11
2022-11-20T06:03:01.253Z,-9.13
2022-11-20T06:04:00.304Z,-9.14
2022-11-20T06:05:00.456Z,-9.16
2022-11-20T06:06:00.623Z,-9.18
2022-11-20T06:07:00.805Z,-9.22
2022-11-20T06:08:00.921Z,-9.22
2022-11-20T06:09:01.038Z,-9.22
2022-11-20T06:10:01.201Z,-9.22
2022-11-20T06:11:00.362Z,-9.23
2022-11-20T06:12:00.524Z,-9.25
2022-11-20T06:13:00.642Z,-9.26
2022-11-20T06:14:00.793Z,-9.26
2022-11-20T06:15:00.934Z,-9.25
2022-11-20T06:16:01.079Z,-9.25
2022-11-20T06:17:01.258Z,-9.23
2022-11-20T06:18:00.378Z,-9.17
2022-11-20T06:19:00.519Z,-9.1
2022-11-20T06:20:00.671Z,-9.05
2022-11-20T06:21:00.824Z,-9.01
2022-11-20T06:22:00.985Z,-8.98
2022-11-20T06:23:01.115Z,-8.95
2022-11-20T06:24:01.316Z,-8.94
2022-11-20T06:25:00.395Z,-8.93
2022-11-20T06:26:00.545Z,-8.92
2022-11-20T06:27:00.717Z,-8.92
2022-11-20T06:28:00.841Z,-8.89
2022-11-20T06:29:00.987Z,-8.89
2022-11-20T06:30:01.139Z,-8.89
2022-11-20T06:31:00.289Z,-8.88
2022-11-20T06:32:00.440Z,-8.88
2022-11-20T06:33:00.602Z,-8.92
2022-11-20T06:34:00.723Z,-8.97
2022-11-20T06:35:00.870Z,-8.99
2022-11-20T06:36:03.436Z,-9
2022-11-20T06:37:01.152Z,-8.98
2022-11-20T06:38:00.320Z,-9.01
2022-11-20T06:39:00.454Z,-9
2022-11-20T06:40:00.593Z,-8.97
2022-11-20T06:41:00.747Z,-8.94
2022-11-20T06:42:00.896Z,-8.9
2022-11-20T06:43:01.051Z,-8.89
2022-11-20T06:44:01.187Z,-8.86
2022-11-20T06:45:00.321Z,-8.85
2022-11-20T06:46:00.475Z,-8.82
2022-11-20T06:47:00.623Z,-8.8
2022-11-20T06:48:00.805Z,-8.78
2022-11-20T06:49:00.916Z,-8.82
2022-11-20T06:50:01.066Z,-8.84
2022-11-20T06:51:01.223Z,-8.87
2022-11-20T06:52:00.368Z,-8.9
2022-11-20T06:53:00.540Z,-8.93
2022-11-20T06:54:00.666Z,-8.9
2022-11-20T06:55:00.821Z,-8.88
2022-11-20T06:56:00.965Z,-8.89
2022-11-20T06:57:01.122Z,-8.9
2022-11-20T06:58:00.292Z,-8.9
2022-11-20T06:59:00.404Z,-8.86
2022-11-20T07:00:00.561Z,-8.81
2022-11-20T07:01:00.799Z,-8.75
2022-11-20T07:02:00.855Z,-8.75
2022-11-20T07:03:01.012Z,-8.81
2022-11-20T07:04:01.146Z,-8.85
2022-11-20T07:05:00.295Z,-8.84
2022-11-20T07:06:00.437Z,-8.77
2022-11-20T07:07:00.668Z,-8.69
2022-11-20T07:08:00.748Z,-8.6
2022-11-20T07:09:00.886Z,-8.5
2022-11-20T07:10:01.028Z,-8.44
2022-11-20T07:11:01.163Z,-8.38
2022-11-20T07:12:00.334Z,-8.34
2022-11-20T07:13:00.464Z,-8.28
2022-11-20T07:14:00.605Z,-8.22
2022-11-20T07:15:00.758Z,-8.18
2022-11-20T07:16:00.892Z,-8.12
2022-11-20T07:17:01.061Z,-8.1
2022-11-20T07:18:01.216Z,-8.09
2022-11-20T07:19:00.331Z,-8.11
2022-11-20T07:20:00.484Z,-8.1
2022-11-20T07:21:00.626Z,-8.12
2022-11-20T07:22:00.779Z,-8.16
2022-11-20T07:23:00.941Z,-8.19
2022-11-20T07:24:01.078Z,-8.18
2022-11-20T07:25:01.247Z,-8.14
2022-11-20T07:26:00.352Z,-8.09
2022-11-20T07:27:00.504Z,-8.06
2022-11-20T07:28:00.659Z,-8.04
2022-11-20T07:29:00.804Z,-8
2022-11-20T07:30:00.966Z,-7.94
2022-11-20T07:31:01.112Z,-7.89
2022-11-20T07:32:00.288Z,-7.89
2022-11-20T07:33:00.387Z,-7.89
2022-11-20T07:34:00.534Z,-7.87
2022-11-20T07:35:00.689Z,-7.85
2022-11-20T07:36:00.848Z,-7.81
2022-11-20T07:37:02.948Z,-7.77
2022-11-20T07:38:01.166Z,-7.71
2022-11-20T07:39:00.295Z,-7.69
2022-11-20T07:40:00.437Z,-7.64
2022-11-20T07:41:00.590Z,-7.6
2022-11-20T07:42:00.726Z,-7.59
2022-11-20T07:43:00.899Z,-7.53
2022-11-20T07:44:01.021Z,-7.51
2022-11-20T07:45:01.173Z,-7.46
2022-11-20T07:46:00.323Z,-7.38
2022-11-20T07:47:00.474Z,-7.32
2022-11-20T07:48:00.642Z,-7.29
2022-11-20T07:49:00.775Z,-7.23
2022-11-20T07:50:00.915Z,-7.21
2022-11-20T07:51:01.056Z,-7.19
2022-11-20T07:52:04.863Z,-7.17
2022-11-20T07:53:00.375Z,-7.17
2022-11-20T07:54:00.496Z,-7.19
2022-11-20T07:55:00.656Z,-7.23
2022-11-20T07:56:00.817Z,-7.25
2022-11-20T07:57:00.949Z,-7.3
2022-11-20T07:58:01.133Z,-7.3
2022-11-20T07:59:01.264Z,-7.26
2022-11-20T08:00:00.397Z,-7.21
2022-11-20T08:01:00.698Z,-7.17
2022-11-20T08:02:00.679Z,-7.13
2022-11-20T08:03:00.852Z,-7.09
2022-11-20T08:04:00.971Z,-7.05
2022-11-20T08:05:01.133Z,-7.03
2022-11-20T08:06:00.274Z,-7.04
2022-11-20T08:07:00.464Z,-7.02
2022-11-20T08:08:00.578Z,-7
2022-11-20T08:09:00.731Z,-6.96
2022-11-20T08:10:00.871Z,-6.93
2022-11-20T08:11:01.018Z,-6.88
2022-11-20T08:12:01.164Z,-6.83
2022-11-20T08:13:00.301Z,-6.78
2022-11-20T08:14:00.466Z,-6.75
2022-11-20T08:15:00.602Z,-6.71
2022-11-20T08:16:00.744Z,-6.68
2022-11-20T08:17:00.921Z,-6.67
2022-11-20T08:18:28.853Z,-6.67
2022-11-20T08:19:01.220Z,-6.68
2022-11-20T08:20:00.367Z,-6.71
2022-11-20T08:21:00.512Z,-6.67
2022-11-20T08:22:00.680Z,-6.63
2022-11-20T08:23:00.851Z,-6.58
2022-11-20T08:24:00.975Z,-6.53
2022-11-20T08:25:01.127Z,-6.49
2022-11-20T08:26:00.270Z,-6.46
2022-11-20T08:27:00.413Z,-6.42
2022-11-20T08:28:02.162Z,-6.38
2022-11-20T08:29:00.723Z,-6.37
2022-11-20T08:30:00.854Z,-6.36
2022-11-20T08:31:01.003Z,-6.32
2022-11-20T08:32:01.150Z,-6.3
2022-11-20T08:33:00.300Z,-6.26
2022-11-20T08:34:00.474Z,-6.23
2022-11-20T08:35:00.596Z,-6.2
2022-11-20T08:36:00.749Z,-6.14
2022-11-20T08:37:00.891Z,-6.08
2022-11-20T08:38:01.041Z,-6.03
2022-11-20T08:39:01.215Z,-6
2022-11-20T08:40:00.335Z,-5.96
2022-11-20T08:41:00.481Z,-5.9
2022-11-20T08:42:00.640Z,-5.85
2022-11-20T08:43:00.786Z,-5.76
2022-11-20T08:44:00.950Z,-5.68
2022-11-20T08:45:01.094Z,-5.61
2022-11-20T08:46:01.224Z,-5.55
2022-11-20T08:47:00.366Z,-5.5
2022-11-20T08:48:00.547Z,-5.46
2022-11-20T08:49:00.650Z,-5.43
2022-11-20T08:50:00.804Z,-5.39
2022-11-20T08:51:00.959Z,-5.32
2022-11-20T08:52:01.098Z,-5.27
2022-11-20T08:53:01.267Z,-5.24
2022-11-20T08:54:00.410Z,-5.23
2022-11-20T08:55:00.565Z,-5.19
2022-11-20T08:56:00.715Z,-5.14
2022-11-20T08:57:00.860Z,-5.07
2022-11-20T08:58:01.034Z,-5
2022-11-20T08:59:31.304Z,-4.96
2022-11-20T09:00:06.919Z,-4.91
2022-11-20T09:01:00.490Z,-4.86
2022-11-20T09:02:00.617Z,-4.82
2022-11-20T09:03:00.758Z,-4.78
2022-11-20T09:04:00.928Z,-4.69
2022-11-20T09:05:01.048Z,-4.6
2022-11-20T09:06:01.209Z,-4.55
2022-11-20T09:07:00.413Z,-4.52
2022-11-20T09:08:00.498Z,-4.46
2022-11-20T09:09:06.162Z,-4.42
2022-11-20T09:10:22.595Z,-4.36
2022-11-20T09:11:00.936Z,-4.31
2022-11-20T09:12:01.076Z,-4.26
2022-11-20T09:13:01.229Z,-4.22
2022-11-20T09:14:00.384Z,-4.16
2022-11-20T09:15:00.551Z,-4.12
2022-11-20T09:16:00.677Z,-4.07
2022-11-20T09:17:00.832Z,-4.01
2022-11-20T09:18:00.975Z,-3.98
2022-11-20T09:19:34.203Z,-3.93
2022-11-20T09:20:00.295Z,-3.9
2022-11-20T09:21:00.476Z,-3.85
2022-11-20T09:22:00.561Z,-3.82
2022-11-20T09:23:00.716Z,-3.79
2022-11-20T09:24:00.865Z,-3.75
2022-11-20T09:25:01.025Z,-3.7
2022-11-20T09:26:01.146Z,-3.67
2022-11-20T09:27:00.295Z,-3.64
2022-11-20T09:28:00.455Z,-3.61
2022-11-20T09:29:00.589Z,-3.6
2022-11-20T09:30:00.758Z,-3.58
2022-11-20T09:31:00.886Z,-3.56
2022-11-20T09:32:01.032Z,-3.56
2022-11-20T09:33:01.171Z,-3.54
2022-11-20T09:34:00.329Z,-3.52
2022-11-20T09:36:00.619Z,-3.48
2022-11-20T09:37:03.149Z,-3.45
2022-11-20T09:38:00.909Z,-3.39
2022-11-20T09:39:01.067Z,-3.37
2022-11-20T09:40:01.237Z,-3.34
2022-11-20T09:41:00.350Z,-3.31
2022-11-20T09:42:00.503Z,-3.24
2022-11-20T09:43:00.638Z,-3.21
2022-11-20T09:44:00.796Z,-3.18
2022-11-20T09:45:00.951Z,-3.17
2022-11-20T09:46:01.106Z,-3.15
2022-11-20T09:47:01.228Z,-3.17
2022-11-20T09:48:00.372Z,-3.13
2022-11-20T09:49:00.518Z,-3.1
2022-11-20T09:50:00.685Z,-3.07
2022-11-20T09:51:00.816Z,-3.04
2022-11-20T09:52:00.974Z,-3.01
2022-11-20T09:53:01.127Z,-2.98
2022-11-20T09:54:01.256Z,-2.95
2022-11-20T09:55:00.429Z,-2.94
2022-11-20T09:56:00.581Z,-2.94
2022-11-20T09:57:00.745Z,-2.93
2022-11-20T09:58:00.865Z,-2.91
2022-11-20T09:59:01.020Z,-2.9
2022-11-20T10:00:01.150Z,-2.88
2022-11-20T10:01:00.368Z,-2.87
2022-11-20T10:02:00.446Z,-2.82
2022-11-20T10:03:00.609Z,-2.8
2022-11-20T10:04:00.748Z,-2.79
2022-11-20T10:05:00.896Z,-2.78
2022-11-20T10:06:01.061Z,-2.76
2022-11-20T10:07:29.842Z,-2.74
2022-11-20T10:08:00.369Z,-2.69
2022-11-20T10:09:00.473Z,-2.66
2022-11-20T10:10:00.636Z,-2.63
2022-11-20T10:11:00.800Z,-2.61
2022-11-20T10:12:00.928Z,-2.59
2022-11-20T10:13:01.076Z,-2.54
2022-11-20T10:14:01.225Z,-2.53
2022-11-20T10:15:00.375Z,-2.5
2022-11-20T10:16:00.533Z,-2.48
2022-11-20T10:17:00.686Z,-2.47
2022-11-20T10:18:00.813Z,-2.46
2022-11-20T10:19:00.965Z,-2.43
2022-11-20T10:20:01.109Z,-2.38
2022-11-20T10:21:00.253Z,-2.35
2022-11-20T10:22:00.432Z,-2.32
2022-11-20T10:23:00.560Z,-2.29
2022-11-20T10:24:00.711Z,-2.24
2022-11-20T10:25:00.862Z,-2.22
2022-11-20T10:26:01.015Z,-2.19
2022-11-20T10:27:01.162Z,-2.17
2022-11-20T10:28:00.300Z,-2.15
2022-11-20T10:29:03.438Z,-2.14
2022-11-20T10:30:00.627Z,-2.12
2022-11-20T10:31:00.778Z,-2.08
2022-11-20T10:32:00.937Z,-2.03
2022-11-20T10:33:01.111Z,-2.02
2022-11-20T10:34:12.619Z,-2.02
2022-11-20T10:35:00.381Z,-2.02
2022-11-20T10:36:00.529Z,-2.01
2022-11-20T10:37:00.671Z,-1.98
2022-11-20T10:38:00.840Z,-1.93
2022-11-20T10:39:00.970Z,-1.9
2022-11-20T10:40:01.137Z,-1.87
2022-11-20T10:41:00.282Z,-1.84
2022-11-20T10:42:00.436Z,-1.82
2022-11-20T10:43:00.617Z,-1.78
2022-11-20T10:44:00.725Z,-1.74
2022-11-20T10:45:04.401Z,-1.71
2022-11-20T10:46:01.014Z,-1.67
2022-11-20T10:47:01.166Z,-1.62
2022-11-20T10:48:00.334Z,-1.57
2022-11-20T10:49:00.468Z,-1.53
2022-11-20T10:50:00.603Z,-1.49
2022-11-20T10:51:00.750Z,-1.47
2022-11-20T10:52:00.900Z,-1.47
2022-11-20T10:53:01.056Z,-1.46
2022-11-20T10:54:01.214Z,-1.44
2022-11-20T10:55:00.338Z,-1.42
2022-11-20T10:56:00.489Z,-1.42
2022-11-20T10:57:00.636Z,-1.42
2022-11-20T10:58:00.828Z,-1.41
2022-11-20T10:59:00.951Z,-1.38
2022-11-20T11:00:01.104Z,-1.38
2022-11-20T11:01:01.262Z,-1.36
2022-11-20T11:02:03.213Z,-1.36
2022-11-20T11:03:00.569Z,-1.34
2022-11-20T11:04:00.695Z,-1.38
2022-11-20T11:05:00.844Z,-1.38
2022-11-20T11:06:00.997Z,-1.35
2022-11-20T11:07:01.227Z,-1.34
2022-11-20T11:08:00.306Z,-1.32
2022-11-20T11:09:00.430Z,-1.32
2022-11-20T11:10:00.576Z,-1.31
2022-11-20T11:11:00.722Z,-1.31
2022-11-20T11:12:06.786Z,-1.31
2022-11-20T11:13:01.049Z,-1.31
2022-11-20T11:14:01.161Z,-1.29
2022-11-20T11:15:00.302Z,-1.26
2022-11-20T11:16:00.455Z,-1.24
2022-11-20T11:17:00.597Z,-1.23
2022-11-20T11:18:00.773Z,-1.19
2022-11-20T11:19:00.893Z,-1.17
2022-11-20T11:20:01.080Z,-1.14
2022-11-20T11:21:01.215Z,-1.14
2022-11-20T11:22:00.349Z,-1.13
2022-11-20T11:23:00.558Z,-1.14
2022-11-20T11:24:19.596Z,-1.13
2022-11-20T11:25:00.813Z,-1.13
2022-11-20T11:26:00.969Z,-1.12
2022-11-20T11:27:01.118Z,-1.11
2022-11-20T11:28:00.278Z,-1.1
2022-11-20T11:29:00.410Z,-1.1
2022-11-20T11:30:00.552Z,-1.1
2022-11-20T11:31:00.702Z,-1.09
2022-11-20T11:32:00.854Z,-1.08
2022-11-20T11:33:01.027Z,-1.06
2022-11-20T11:34:01.146Z,-1.03
2022-11-20T11:35:00.302Z,-1.01
2022-11-20T11:36:00.449Z,-1.02
2022-11-20T11:37:00.595Z,-1.02
2022-11-20T11:38:00.770Z,-1.01
2022-11-20T11:39:00.898Z,-1.01
2022-11-20T11:40:23.473Z,-1.01
2022-11-20T11:41:01.185Z,-1.02
2022-11-20T11:42:00.319Z,-1.01
2022-11-20T11:43:00.491Z,-1.01
2022-11-20T11:44:00.609Z,-1.01
2022-11-20T11:45:00.761Z,-1.01
2022-11-20T11:46:00.907Z,-0.99
2022-11-20T11:47:01.040Z,-0.97
2022-11-20T11:48:01.196Z,-0.97
2022-11-20T11:49:00.338Z,-0.97
2022-11-20T11:50:00.503Z,-0.97
2022-11-20T11:51:00.654Z,-0.96
2022-11-20T11:52:00.771Z,-0.96
2022-11-20T11:53:00.921Z,-0.96
2022-11-20T11:54:01.068Z,-0.94
2022-11-20T11:55:01.212Z,-0.93
2022-11-20T11:56:00.380Z,-0.9
2022-11-20T11:57:00.532Z,-0.89
2022-11-20T11:58:00.650Z,-0.87
2022-11-20T11:59:00.809Z,-0.87
2022-11-20T12:00:00.964Z,-0.85
2022-11-20T12:01:01.110Z,-0.86
2022-11-20T12:02:01.288Z,-0.85
2022-11-20T12:03:00.423Z,-0.85
2022-11-20T12:04:00.549Z,-0.85
2022-11-20T12:05:00.686Z,-0.84
2022-11-20T12:06:00.833Z,-0.83
2022-11-20T12:07:09.212Z,-0.81
2022-11-20T12:08:01.199Z,-0.81
2022-11-20T12:09:00.305Z,-0.81
2022-11-20T12:10:00.448Z,-0.79
2022-11-20T12:11:00.592Z,-0.75
2022-11-20T12:12:00.724Z,-0.75
2022-11-20T12:13:00.876Z,-0.75
2022-11-20T12:14:01.013Z,-0.73
2022-11-20T12:15:01.143Z,-0.7
2022-11-20T12:16:00.295Z,-0.68
2022-11-20T12:17:00.444Z,-0.67
2022-11-20T12:18:00.615Z,-0.68
2022-11-20T12:19:00.731Z,-0.67
2022-11-20T12:20:00.873Z,-0.67
2022-11-20T12:21:01.029Z,-0.64
2022-11-20T12:22:03.396Z,-0.62
2022-11-20T12:23:00.339Z,-0.59
2022-11-20T12:24:00.470Z,-0.58
2022-11-20T12:25:00.612Z,-0.58
2022-11-20T12:26:00.773Z,-0.59
2022-11-20T12:27:00.922Z,-0.61
2022-11-20T12:28:01.088Z,-0.6
2022-11-20T12:29:01.211Z,-0.59
2022-11-20T12:30:00.354Z,-0.57
2022-11-20T12:31:00.505Z,-0.54
2022-11-20T12:32:00.652Z,-0.53
2022-11-20T12:33:00.822Z,-0.52
2022-11-20T12:34:00.961Z,-0.5
2022-11-20T12:35:01.122Z,-0.49
2022-11-20T12:37:00.365Z,-0.46
2022-11-20T12:38:00.523Z,-0.47
2022-11-20T12:39:00.667Z,-0.46
2022-11-20T12:40:00.817Z,-0.45
2022-11-20T12:41:00.956Z,-0.45
2022-11-20T12:42:01.107Z,-0.45
2022-11-20T12:43:01.250Z,-0.44
2022-11-20T12:44:00.392Z,-0.43
2022-11-20T12:45:00.559Z,-0.42
2022-11-20T12:46:00.691Z,-0.39
2022-11-20T12:47:00.845Z,-0.38
2022-11-20T12:48:01.011Z,-0.36
2022-11-20T12:49:01.171Z,-0.36
2022-11-20T12:50:00.297Z,-0.32
2022-11-20T12:51:14.700Z,-0.32
2022-11-20T12:52:00.610Z,-0.31
2022-11-20T12:53:00.754Z,-0.31
2022-11-20T12:54:00.919Z,-0.31
2022-11-20T12:55:01.064Z,-0.29
2022-11-20T12:56:01.194Z,-0.29
2022-11-20T12:57:03.758Z,-0.28